Vb Ouragan — FIVA — position and weather

sailwx.info

Track history (hours):
 
Tides and Currents Weather Stations Pressure Air Temp Water Temp Dewpoint Dewpoint Depression Visibility Wind Speed Wind Dir Waves Ship Positions

Vb Ouragan

Last reported at 2018-Jan-23 19:41 UTC. Time now 2018-Jan-23 20:08 UTC.
Position N 47°18' W 002°06'.

Length 30 m; draft 5 m.

Type: Tug. MMSI: 228067800.

Date/timePositionNaut miles runAvg speedWind from/ knotsBaromVisibWave heightAir tempDewpointWater temp
2018-Jan-23 19:41N 47°18' W 002°06'5 0.7
2018-Jan-23 12:17N 47°16' W 002°12'0 0.0
2018-Jan-23 12:00N 47°16' W 002°12'0 0.0
2018-Jan-23 11:30N 47°16' W 002°12'0 0.0
2018-Jan-23 11:00N 47°16' W 002°12'0 0.0
2018-Jan-23 10:30N 47°16' W 002°12'0 0.0
2018-Jan-23 10:00N 47°16' W 002°12'0 0.0
2018-Jan-23 09:30N 47°16' W 002°12'0 0.0
2018-Jan-23 09:00N 47°16' W 002°12'0 0.0
2018-Jan-23 08:30N 47°16' W 002°12'0 0.0
2018-Jan-23 08:00N 47°16' W 002°12'0 0.0
2018-Jan-23 07:30N 47°16' W 002°12'0 0.0
2018-Jan-23 07:00N 47°16' W 002°12'0 0.0
2018-Jan-23 06:30N 47°16' W 002°12'0 0.0
2018-Jan-23 06:00N 47°16' W 002°12'0 0.0
2018-Jan-23 05:30N 47°16' W 002°12'0 0.0
2018-Jan-23 05:00N 47°16' W 002°12'0 0.0
2018-Jan-23 04:30N 47°16' W 002°12'0 0.0
2018-Jan-23 04:00N 47°16' W 002°12'0 0.0
2018-Jan-23 03:30N 47°16' W 002°12'0 0.0
2018-Jan-23 03:00N 47°16' W 002°12'0 0.0
2018-Jan-23 02:30N 47°16' W 002°12'0 0.0
2018-Jan-23 02:00N 47°16' W 002°12'0 0.0
2018-Jan-23 01:30N 47°16' W 002°12'0 0.0
2018-Jan-23 01:00N 47°16' W 002°12'0 0.0
2018-Jan-23 00:30N 47°16' W 002°12'0 0.0
2018-Jan-23 00:00N 47°16' W 002°12'0 0.0
2018-Jan-22 23:30N 47°16' W 002°12'0 0.0
2018-Jan-22 23:00N 47°16' W 002°12'0 0.0
2018-Jan-22 22:30N 47°16' W 002°12'0 0.5
2018-Jan-22 22:00N 47°16' W 002°12'1 1.6
2018-Jan-22 21:30N 47°17' W 002°12'0 0.4
2018-Jan-22 21:01N 47°17' W 002°12'0 0.6
2018-Jan-22 20:30N 47°17' W 002°12'0 0.0
2018-Jan-22 20:00N 47°17' W 002°12'0 0.0
2018-Jan-22 19:27N 47°17' W 002°12'0 0.1
2018-Jan-22 19:01N 47°16' W 002°12'1 1.2
2018-Jan-22 18:30N 47°16' W 002°11'1 1.8
2018-Jan-22 18:01N 47°17' W 002°11'0 0.6
2018-Jan-22 17:29N 47°17' W 002°11'1 2.7
2018-Jan-22 17:00N 47°16' W 002°12'0 0.0
2018-Jan-22 16:30N 47°16' W 002°12'0 0.0
2018-Jan-22 16:01N 47°16' W 002°12'3 6.0
2018-Jan-22 15:30N 47°18' W 002°09'1 1.3
2018-Jan-22 15:00N 47°18' W 002°08'1 1.9
2018-Jan-22 14:30N 47°18' W 002°09'2 3.7
2018-Jan-22 14:01N 47°18' W 002°06'0 0.1
2018-Jan-22 13:30N 47°18' W 002°06'0 0.9
2018-Jan-22 13:00N 47°18' W 002°07'4 8.4
2018-Jan-22 12:30N 47°16' W 002°12'0 0.1
2018-Jan-22 12:00N 47°16' W 002°12'0 0.0
2018-Jan-22 11:30N 47°16' W 002°12'0 0.0
2018-Jan-22 11:01N 47°16' W 002°12'0 0.0
2018-Jan-22 10:30N 47°16' W 002°12'0 0.0
2018-Jan-22 10:00N 47°16' W 002°12'0 0.0
2018-Jan-22 09:30N 47°16' W 002°12'5 9.7
2018-Jan-22 09:00N 47°18' W 002°06'0 0.1
2018-Jan-22 08:30N 47°18' W 002°06'0 0.2
2018-Jan-22 08:00N 47°18' W 002°06'0 0.1
2018-Jan-22 07:30N 47°18' W 002°06'1 2.3
2018-Jan-22 07:00N 47°18' W 002°08'3 6.5
2018-Jan-22 06:30N 47°16' W 002°11'0 0.8
2018-Jan-22 05:59N 47°16' W 002°12'0 0.0
2018-Jan-22 05:30N 47°16' W 002°12'0 0.0
2018-Jan-22 05:00N 47°16' W 002°12'0 0.0
2018-Jan-22 04:31N 47°16' W 002°12'0 0.0
2018-Jan-22 04:01N 47°16' W 002°12'0 0.0
2018-Jan-22 03:30N 47°16' W 002°12'0 0.0
2018-Jan-22 03:00N 47°16' W 002°12'0 0.0
2018-Jan-22 02:30N 47°16' W 002°12'0 0.0
2018-Jan-22 02:01N 47°16' W 002°12'0 0.0
2018-Jan-22 01:30N 47°16' W 002°12'0 0.0
2018-Jan-22 01:00N 47°16' W 002°12'0 0.0
2018-Jan-22 00:30N 47°16' W 002°12'0 0.0
2018-Jan-22 00:01N 47°16' W 002°12'0 0.0
2018-Jan-21 23:30N 47°16' W 002°12'0 0.0
2018-Jan-21 23:01N 47°16' W 002°12'0 0.0
2018-Jan-21 22:30N 47°16' W 002°12'0 0.0
2018-Jan-21 22:01N 47°16' W 002°12'0 0.0
2018-Jan-21 21:28N 47°16' W 002°12'0 0.0
2018-Jan-21 21:00N 47°16' W 002°12'0 0.0
2018-Jan-21 20:30N 47°16' W 002°12'0 0.0
2018-Jan-21 20:00N 47°16' W 002°12'0 0.0
2018-Jan-21 19:31N 47°16' W 002°12'0 0.0
2018-Jan-21 19:00N 47°16' W 002°12'0 0.0
2018-Jan-21 18:30N 47°16' W 002°12'0 0.0
2018-Jan-21 18:00N 47°16' W 002°12'0 0.0
2018-Jan-21 17:31N 47°16' W 002°12'0 0.0
2018-Jan-21 17:01N 47°16' W 002°12'0 0.0
2018-Jan-21 16:30N 47°16' W 002°12'0 0.0
2018-Jan-21 16:00N 47°16' W 002°12'0 0.0
2018-Jan-21 15:30N 47°16' W 002°12'0 0.0
2018-Jan-21 15:00N 47°16' W 002°12'0 0.0
2018-Jan-21 14:30N 47°16' W 002°12'0 0.0
2018-Jan-21 14:01N 47°16' W 002°12'0 0.0
2018-Jan-21 13:30N 47°16' W 002°12'0 0.0
2018-Jan-21 13:00N 47°16' W 002°12'0 0.0
2018-Jan-21 12:30N 47°16' W 002°12'0 0.0
2018-Jan-21 12:00N 47°16' W 002°12'0 0.0
2018-Jan-21 11:30N 47°16' W 002°12'0 0.0
2018-Jan-21 11:00N 47°16' W 002°12'0 0.0
2018-Jan-21 10:31N 47°16' W 002°12'0 0.0
2018-Jan-21 10:00N 47°16' W 002°12'0 0.0
2018-Jan-21 09:30N 47°16' W 002°12'0 0.0
2018-Jan-21 09:00N 47°16' W 002°12'0 0.0
2018-Jan-21 08:30N 47°16' W 002°12'0 0.0
2018-Jan-21 08:00N 47°16' W 002°12'3 5.8
2018-Jan-21 07:30N 47°18' W 002°09'0 0.0
2018-Jan-21 07:00N 47°18' W 002°09'0 0.0
2018-Jan-21 06:30N 47°18' W 002°09'0 0.0
2018-Jan-21 06:00N 47°18' W 002°09'0 0.0
2018-Jan-21 05:30N 47°18' W 002°09'0 0.6
2018-Jan-21 05:00N 47°18' W 002°09'0 0.3
2018-Jan-21 04:30N 47°18' W 002°09'0 0.5
2018-Jan-21 04:00N 47°18' W 002°09'0 0.0
2018-Jan-21 03:30N 47°18' W 002°09'0 0.0
2018-Jan-21 03:00N 47°18' W 002°09'0 0.0
2018-Jan-21 02:30N 47°18' W 002°09'0 0.0
2018-Jan-21 02:00N 47°18' W 002°09'0 0.0
2018-Jan-21 01:30N 47°18' W 002°09'0 0.0
2018-Jan-21 01:00N 47°18' W 002°09'0 0.0
2018-Jan-21 00:30N 47°18' W 002°09'0 0.0
2018-Jan-21 00:00N 47°18' W 002°09'0 0.0
2018-Jan-20 23:30N 47°18' W 002°09'0 0.0
2018-Jan-20 23:00N 47°18' W 002°09'0 0.0
2018-Jan-20 22:30N 47°18' W 002°09'0 0.0
2018-Jan-20 22:00N 47°18' W 002°09'0 0.0
2018-Jan-20 21:30N 47°18' W 002°09'0 0.0
2018-Jan-20 21:00N 47°18' W 002°09'0 0.0
2018-Jan-20 20:30N 47°18' W 002°09'0 0.0
2018-Jan-20 20:00N 47°18' W 002°09'0 0.0
2018-Jan-20 19:30N 47°18' W 002°09'0 0.0
2018-Jan-20 19:00N 47°18' W 002°09'0 0.0
2018-Jan-20 18:30N 47°18' W 002°09'0 0.0
2018-Jan-20 18:00N 47°18' W 002°09'0 0.0
2018-Jan-20 17:30N 47°18' W 002°09'2 3.8
2018-Jan-20 17:00N 47°17' W 002°11'0 0.8
2018-Jan-20 16:30N 47°17' W 002°11'0 0.1
2018-Jan-20 16:00N 47°17' W 002°11'0 1.0
2018-Jan-20 15:30N 47°17' W 002°10'1 2.7
2018-Jan-20 15:00N 47°18' W 002°09'0 0.0
2018-Jan-20 14:30N 47°18' W 002°09'0 0.0
2018-Jan-20 14:00N 47°18' W 002°09'0 0.0
2018-Jan-20 13:30N 47°18' W 002°09'0 0.0
2018-Jan-20 13:00N 47°18' W 002°09'0 0.0
2018-Jan-20 12:30N 47°18' W 002°09'0 0.0
2018-Jan-20 12:00N 47°18' W 002°09'0 0.0
2018-Jan-20 11:30N 47°18' W 002°09'0 0.0
2018-Jan-20 11:00N 47°18' W 002°09'0 0.0
2018-Jan-20 10:30N 47°18' W 002°09'0 0.0
2018-Jan-20 10:00N 47°18' W 002°09'0 0.0
2018-Jan-20 09:30N 47°18' W 002°09'0 0.0
2018-Jan-20 09:00N 47°18' W 002°09'0 0.0
2018-Jan-20 08:30N 47°18' W 002°09'3 5.7
2018-Jan-20 08:00N 47°16' W 002°12'0 0.0
2018-Jan-20 07:30N 47°16' W 002°12'0 0.0
2018-Jan-20 07:00N 47°16' W 002°12'1 2.8
2018-Jan-20 06:30N 47°17' W 002°10'3 6.2
2018-Jan-20 06:00N 47°18' W 002°06'0 0.7
2018-Jan-20 05:30N 47°18' W 002°06'0 0.1
2018-Jan-20 05:00N 47°18' W 002°06'4 7.0
2018-Jan-20 04:30N 47°17' W 002°11'1 2.6
2018-Jan-20 04:00N 47°16' W 002°12'0 0.0
2018-Jan-20 03:30N 47°16' W 002°12'0 0.0
2018-Jan-20 03:00N 47°16' W 002°12'0 0.0
2018-Jan-20 02:30N 47°16' W 002°12'0 0.0
2018-Jan-20 02:00N 47°16' W 002°12'0 0.0
2018-Jan-20 01:30N 47°16' W 002°12'0 0.0
2018-Jan-20 01:00N 47°16' W 002°12'0 0.0
2018-Jan-20 00:30N 47°16' W 002°12'0 0.0
2018-Jan-20 00:00N 47°16' W 002°12'0 0.0
2018-Jan-19 23:29N 47°16' W 002°12'0 0.0
2018-Jan-19 23:00N 47°16' W 002°12'0 0.0
2018-Jan-19 22:30N 47°16' W 002°12'0 0.0
2018-Jan-19 22:00N 47°16' W 002°12'0 0.0
2018-Jan-19 21:30N 47°16' W 002°12'0 0.0
2018-Jan-19 21:00N 47°16' W 002°12'0 0.0
2018-Jan-19 20:30N 47°16' W 002°12'0 0.0
2018-Jan-19 20:00N 47°16' W 002°12'0 0.0
2018-Jan-19 19:30N 47°16' W 002°12'2 4.8
2018-Jan-19 19:00N 47°18' W 002°09'0 0.2
2018-Jan-19 18:30N 47°18' W 002°09'3 5.0
2018-Jan-19 18:00N 47°16' W 002°12'0 0.0
2018-Jan-19 17:30N 47°16' W 002°12'0 0.0
2018-Jan-19 17:00N 47°16' W 002°12'0 0.2
2018-Jan-19 16:30N 47°16' W 002°12'4 8.5
2018-Jan-19 16:00N 47°18' W 002°07'0 0.3
2018-Jan-19 15:31N 47°18' W 002°07'3 6.4
2018-Jan-19 15:00N 47°17' W 002°11'1 1.9
2018-Jan-19 14:30N 47°16' W 002°12'0 0.0
2018-Jan-19 14:00N 47°16' W 002°12'0 0.0
2018-Jan-19 13:30N 47°16' W 002°12'0 0.0
2018-Jan-19 13:00N 47°16' W 002°12'0 0.0
2018-Jan-19 12:30N 47°16' W 002°12'0 0.0
2018-Jan-19 12:00N 47°16' W 002°12'0 0.0
2018-Jan-19 11:30N 47°16' W 002°12'0 0.0
2018-Jan-19 11:00N 47°16' W 002°12'0 0.0
2018-Jan-19 10:30N 47°16' W 002°12'0 0.0
2018-Jan-19 10:00N 47°16' W 002°12'0 0.0
2018-Jan-19 09:30N 47°16' W 002°12'0 0.0
2018-Jan-19 09:00N 47°16' W 002°12'0 0.0
2018-Jan-19 08:30N 47°16' W 002°12'0 0.0
2018-Jan-19 08:00N 47°16' W 002°12'0 0.0
2018-Jan-19 07:30N 47°16' W 002°12'0 0.0
2018-Jan-19 07:00N 47°16' W 002°12'5 9.9
2018-Jan-19 06:30N 47°18' W 002°06'1 2.0
2018-Jan-19 06:00N 47°18' W 002°04'0 0.2
2018-Jan-19 05:31N 47°18' W 002°04'1 1.0
2018-Jan-19 05:00N 47°18' W 002°05'1 1.0
2018-Jan-19 04:30N 47°18' W 002°04'0 0.0
2018-Jan-19 04:00N 47°18' W 002°04'510.0
2018-Jan-19 03:30N 47°16' W 002°11'1 1.6
2018-Jan-19 03:00N 47°16' W 002°12'0 0.0
2018-Jan-19 02:30N 47°16' W 002°12'0 0.0
2018-Jan-19 02:00N 47°16' W 002°12'0 0.0
2018-Jan-19 01:30N 47°16' W 002°12'0 0.0
2018-Jan-19 01:00N 47°16' W 002°12'0 0.0
2018-Jan-19 00:30N 47°16' W 002°12'0 0.0
2018-Jan-19 00:00N 47°16' W 002°12'0 0.0
2018-Jan-18 23:30N 47°16' W 002°12'0 0.0
2018-Jan-18 23:00N 47°16' W 002°12'0 0.0
2018-Jan-18 22:30N 47°16' W 002°12'0 0.0
2018-Jan-18 22:00N 47°16' W 002°12'0 0.0
2018-Jan-18 21:30N 47°16' W 002°12'0 0.0
2018-Jan-18 21:00N 47°16' W 002°12'0 0.0
2018-Jan-18 20:30N 47°16' W 002°12'0 0.0
2018-Jan-18 20:00N 47°16' W 002°12'0 0.0
2018-Jan-18 19:30N 47°16' W 002°12'0 0.0
2018-Jan-18 19:00N 47°16' W 002°12'0 0.0
2018-Jan-18 18:30N 47°16' W 002°12'2 2.3
2018-Jan-18 17:30N 47°18' W 002°09'1 1.3
2018-Jan-18 17:00N 47°18' W 002°09'0 0.2
2018-Jan-18 16:30N 47°18' W 002°08'0 0.1
2018-Jan-18 16:00N 47°18' W 002°08'1 1.3
2018-Jan-18 15:31N 47°18' W 002°09'3 5.5
2018-Jan-18 15:00N 47°16' W 002°12'0 0.8
2018-Jan-18 14:30N 47°16' W 002°12'0 0.0
2018-Jan-18 14:01N 47°16' W 002°12'0 0.0
2018-Jan-18 13:31N 47°16' W 002°12'0 0.0
2018-Jan-18 13:01N 47°16' W 002°12'0 0.0
2018-Jan-18 12:30N 47°16' W 002°12'4 8.1
2018-Jan-18 12:00N 47°18' W 002°07'1 1.0
2018-Jan-18 11:30N 47°18' W 002°06'1 1.2
2018-Jan-18 11:00N 47°18' W 002°07'4 7.5
2018-Jan-18 10:29N 47°16' W 002°12'0 0.0
2018-Jan-18 10:01N 47°16' W 002°12'0 0.0
2018-Jan-18 09:31N 47°16' W 002°12'0 0.0
2018-Jan-18 09:00N 47°16' W 002°12'0 0.0
2018-Jan-18 08:30N 47°16' W 002°12'0 0.0
2018-Jan-18 08:00N 47°16' W 002°12'3 5.0
2018-Jan-18 07:30N 47°18' W 002°09'713.1
2018-Jan-18 07:00N 47°17' W 001°59'612.6
2018-Jan-18 06:30N 47°15' W 001°51'610.8
2018-Jan-18 05:59N 47°12' W 001°43'510.0
2018-Jan-18 05:30N 47°12' W 001°36'0 0.1
2018-Jan-18 04:59N 47°12' W 001°36'1 1.9
2018-Jan-18 04:30N 47°12' W 001°35'1 2.6
2018-Jan-18 04:00N 47°12' W 001°37'0 0.0
2018-Jan-18 03:30N 47°12' W 001°37'0 0.0
2018-Jan-18 03:00N 47°12' W 001°37'0 0.9
2018-Jan-18 02:30N 47°12' W 001°36'0 0.1
2018-Jan-18 02:00N 47°12' W 001°36'3 5.4
2018-Jan-18 01:30N 47°12' W 001°40'4 8.5
2018-Jan-18 01:00N 47°12' W 001°47'8 8.3
2018-Jan-18 00:00N 47°17' W 001°57'0 9.4
2018-Jan-17 23:57N 47°17' W 001°58'  
Track history (hours):
 
Tides and Currents Weather Stations Pressure Air Temp Water Temp Dewpoint Dewpoint Depression Visibility Wind Speed Wind Dir Waves Ship Positions

Vb Ouragan

Last reported at 2018-Jan-23 19:41 UTC. Time now 2018-Jan-23 20:08 UTC.
Position N 47°18' W 002°06'.

Length 30 m; draft 5 m.

Type: Tug. MMSI: 228067800.

Date/timePositionNaut miles runAvg speedWind from/ knotsBaromVisibWave heightAir tempDewpointWater temp
2018-Jan-23 19:41N 47°18' W 002°06'5 0.7
2018-Jan-23 12:17N 47°16' W 002°12'0 0.0
2018-Jan-23 12:00N 47°16' W 002°12'0 0.0
2018-Jan-23 11:30N 47°16' W 002°12'0 0.0
2018-Jan-23 11:00N 47°16' W 002°12'0 0.0
2018-Jan-23 10:30N 47°16' W 002°12'0 0.0
2018-Jan-23 10:00N 47°16' W 002°12'0 0.0
2018-Jan-23 09:30N 47°16' W 002°12'0 0.0
2018-Jan-23 09:00N 47°16' W 002°12'0 0.0
2018-Jan-23 08:30N 47°16' W 002°12'0 0.0
2018-Jan-23 08:00N 47°16' W 002°12'0 0.0
2018-Jan-23 07:30N 47°16' W 002°12'0 0.0
2018-Jan-23 07:00N 47°16' W 002°12'0 0.0
2018-Jan-23 06:30N 47°16' W 002°12'0 0.0
2018-Jan-23 06:00N 47°16' W 002°12'0 0.0
2018-Jan-23 05:30N 47°16' W 002°12'0 0.0
2018-Jan-23 05:00N 47°16' W 002°12'0 0.0
2018-Jan-23 04:30N 47°16' W 002°12'0 0.0
2018-Jan-23 04:00N 47°16' W 002°12'0 0.0
2018-Jan-23 03:30N 47°16' W 002°12'0 0.0
2018-Jan-23 03:00N 47°16' W 002°12'0 0.0
2018-Jan-23 02:30N 47°16' W 002°12'0 0.0
2018-Jan-23 02:00N 47°16' W 002°12'0 0.0
2018-Jan-23 01:30N 47°16' W 002°12'0 0.0
2018-Jan-23 01:00N 47°16' W 002°12'0 0.0
2018-Jan-23 00:30N 47°16' W 002°12'0 0.0
2018-Jan-23 00:00N 47°16' W 002°12'0 0.0
2018-Jan-22 23:30N 47°16' W 002°12'0 0.0
2018-Jan-22 23:00N 47°16' W 002°12'0 0.0
2018-Jan-22 22:30N 47°16' W 002°12'0 0.5
2018-Jan-22 22:00N 47°16' W 002°12'1 1.6
2018-Jan-22 21:30N 47°17' W 002°12'0 0.4
2018-Jan-22 21:01N 47°17' W 002°12'0 0.6
2018-Jan-22 20:30N 47°17' W 002°12'0 0.0
2018-Jan-22 20:00N 47°17' W 002°12'0 0.0
2018-Jan-22 19:27N 47°17' W 002°12'0 0.1
2018-Jan-22 19:01N 47°16' W 002°12'1 1.2
2018-Jan-22 18:30N 47°16' W 002°11'1 1.8
2018-Jan-22 18:01N 47°17' W 002°11'0 0.6
2018-Jan-22 17:29N 47°17' W 002°11'1 2.7
2018-Jan-22 17:00N 47°16' W 002°12'0 0.0
2018-Jan-22 16:30N 47°16' W 002°12'0 0.0
2018-Jan-22 16:01N 47°16' W 002°12'3 6.0
2018-Jan-22 15:30N 47°18' W 002°09'1 1.3
2018-Jan-22 15:00N 47°18' W 002°08'1 1.9
2018-Jan-22 14:30N 47°18' W 002°09'2 3.7
2018-Jan-22 14:01N 47°18' W 002°06'0 0.1
2018-Jan-22 13:30N 47°18' W 002°06'0 0.9
2018-Jan-22 13:00N 47°18' W 002°07'4 8.4
2018-Jan-22 12:30N 47°16' W 002°12'0 0.1
2018-Jan-22 12:00N 47°16' W 002°12'0 0.0
2018-Jan-22 11:30N 47°16' W 002°12'0 0.0
2018-Jan-22 11:01N 47°16' W 002°12'0 0.0
2018-Jan-22 10:30N 47°16' W 002°12'0 0.0
2018-Jan-22 10:00N 47°16' W 002°12'0 0.0
2018-Jan-22 09:30N 47°16' W 002°12'5 9.7
2018-Jan-22 09:00N 47°18' W 002°06'0 0.1
2018-Jan-22 08:30N 47°18' W 002°06'0 0.2
2018-Jan-22 08:00N 47°18' W 002°06'0 0.1
2018-Jan-22 07:30N 47°18' W 002°06'1 2.3
2018-Jan-22 07:00N 47°18' W 002°08'3 6.5
2018-Jan-22 06:30N 47°16' W 002°11'0 0.8
2018-Jan-22 05:59N 47°16' W 002°12'0 0.0
2018-Jan-22 05:30N 47°16' W 002°12'0 0.0
2018-Jan-22 05:00N 47°16' W 002°12'0 0.0
2018-Jan-22 04:31N 47°16' W 002°12'0 0.0
2018-Jan-22 04:01N 47°16' W 002°12'0 0.0
2018-Jan-22 03:30N 47°16' W 002°12'0 0.0
2018-Jan-22 03:00N 47°16' W 002°12'0 0.0
2018-Jan-22 02:30N 47°16' W 002°12'0 0.0
2018-Jan-22 02:01N 47°16' W 002°12'0 0.0
2018-Jan-22 01:30N 47°16' W 002°12'0 0.0
2018-Jan-22 01:00N 47°16' W 002°12'0 0.0
2018-Jan-22 00:30N 47°16' W 002°12'0 0.0
2018-Jan-22 00:01N 47°16' W 002°12'0 0.0
2018-Jan-21 23:30N 47°16' W 002°12'0 0.0
2018-Jan-21 23:01N 47°16' W 002°12'0 0.0
2018-Jan-21 22:30N 47°16' W 002°12'0 0.0
2018-Jan-21 22:01N 47°16' W 002°12'0 0.0
2018-Jan-21 21:28N 47°16' W 002°12'0 0.0
2018-Jan-21 21:00N 47°16' W 002°12'0 0.0
2018-Jan-21 20:30N 47°16' W 002°12'0 0.0
2018-Jan-21 20:00N 47°16' W 002°12'0 0.0
2018-Jan-21 19:31N 47°16' W 002°12'0 0.0
2018-Jan-21 19:00N 47°16' W 002°12'0 0.0
2018-Jan-21 18:30N 47°16' W 002°12'0 0.0
2018-Jan-21 18:00N 47°16' W 002°12'0 0.0
2018-Jan-21 17:31N 47°16' W 002°12'0 0.0
2018-Jan-21 17:01N 47°16' W 002°12'0 0.0
2018-Jan-21 16:30N 47°16' W 002°12'0 0.0
2018-Jan-21 16:00N 47°16' W 002°12'0 0.0
2018-Jan-21 15:30N 47°16' W 002°12'0 0.0
2018-Jan-21 15:00N 47°16' W 002°12'0 0.0
2018-Jan-21 14:30N 47°16' W 002°12'0 0.0
2018-Jan-21 14:01N 47°16' W 002°12'0 0.0
2018-Jan-21 13:30N 47°16' W 002°12'0 0.0
2018-Jan-21 13:00N 47°16' W 002°12'0 0.0
2018-Jan-21 12:30N 47°16' W 002°12'0 0.0
2018-Jan-21 12:00N 47°16' W 002°12'0 0.0
2018-Jan-21 11:30N 47°16' W 002°12'0 0.0
2018-Jan-21 11:00N 47°16' W 002°12'0 0.0
2018-Jan-21 10:31N 47°16' W 002°12'0 0.0
2018-Jan-21 10:00N 47°16' W 002°12'0 0.0
2018-Jan-21 09:30N 47°16' W 002°12'0 0.0
2018-Jan-21 09:00N 47°16' W 002°12'0 0.0
2018-Jan-21 08:30N 47°16' W 002°12'0 0.0
2018-Jan-21 08:00N 47°16' W 002°12'3 5.8
2018-Jan-21 07:30N 47°18' W 002°09'0 0.0
2018-Jan-21 07:00N 47°18' W 002°09'0 0.0
2018-Jan-21 06:30N 47°18' W 002°09'0 0.0
2018-Jan-21 06:00N 47°18' W 002°09'0 0.0
2018-Jan-21 05:30N 47°18' W 002°09'0 0.6
2018-Jan-21 05:00N 47°18' W 002°09'0 0.3
2018-Jan-21 04:30N 47°18' W 002°09'0 0.5
2018-Jan-21 04:00N 47°18' W 002°09'0 0.0
2018-Jan-21 03:30N 47°18' W 002°09'0 0.0
2018-Jan-21 03:00N 47°18' W 002°09'0 0.0
2018-Jan-21 02:30N 47°18' W 002°09'0 0.0
2018-Jan-21 02:00N 47°18' W 002°09'0 0.0
2018-Jan-21 01:30N 47°18' W 002°09'0 0.0
2018-Jan-21 01:00N 47°18' W 002°09'0 0.0
2018-Jan-21 00:30N 47°18' W 002°09'0 0.0
2018-Jan-21 00:00N 47°18' W 002°09'0 0.0
2018-Jan-20 23:30N 47°18' W 002°09'0 0.0
2018-Jan-20 23:00N 47°18' W 002°09'0 0.0
2018-Jan-20 22:30N 47°18' W 002°09'0 0.0
2018-Jan-20 22:00N 47°18' W 002°09'0 0.0
2018-Jan-20 21:30N 47°18' W 002°09'0 0.0
2018-Jan-20 21:00N 47°18' W 002°09'0 0.0
2018-Jan-20 20:30N 47°18' W 002°09'0 0.0
2018-Jan-20 20:00N 47°18' W 002°09'0 0.0
2018-Jan-20 19:30N 47°18' W 002°09'0 0.0
2018-Jan-20 19:00N 47°18' W 002°09'0 0.0
2018-Jan-20 18:30N 47°18' W 002°09'0 0.0
2018-Jan-20 18:00N 47°18' W 002°09'0 0.0
2018-Jan-20 17:30N 47°18' W 002°09'2 3.8
2018-Jan-20 17:00N 47°17' W 002°11'0 0.8
2018-Jan-20 16:30N 47°17' W 002°11'0 0.1
2018-Jan-20 16:00N 47°17' W 002°11'0 1.0
2018-Jan-20 15:30N 47°17' W 002°10'1 2.7
2018-Jan-20 15:00N 47°18' W 002°09'0 0.0
2018-Jan-20 14:30N 47°18' W 002°09'0 0.0
2018-Jan-20 14:00N 47°18' W 002°09'0 0.0
2018-Jan-20 13:30N 47°18' W 002°09'0 0.0
2018-Jan-20 13:00N 47°18' W 002°09'0 0.0
2018-Jan-20 12:30N 47°18' W 002°09'0 0.0
2018-Jan-20 12:00N 47°18' W 002°09'0 0.0
2018-Jan-20 11:30N 47°18' W 002°09'0 0.0
2018-Jan-20 11:00N 47°18' W 002°09'0 0.0
2018-Jan-20 10:30N 47°18' W 002°09'0 0.0
2018-Jan-20 10:00N 47°18' W 002°09'0 0.0
2018-Jan-20 09:30N 47°18' W 002°09'0 0.0
2018-Jan-20 09:00N 47°18' W 002°09'0 0.0
2018-Jan-20 08:30N 47°18' W 002°09'3 5.7
2018-Jan-20 08:00N 47°16' W 002°12'0 0.0
2018-Jan-20 07:30N 47°16' W 002°12'0 0.0
2018-Jan-20 07:00N 47°16' W 002°12'1 2.8
2018-Jan-20 06:30N 47°17' W 002°10'3 6.2
2018-Jan-20 06:00N 47°18' W 002°06'0 0.7
2018-Jan-20 05:30N 47°18' W 002°06'0 0.1
2018-Jan-20 05:00N 47°18' W 002°06'4 7.0
2018-Jan-20 04:30N 47°17' W 002°11'1 2.6
2018-Jan-20 04:00N 47°16' W 002°12'0 0.0
2018-Jan-20 03:30N 47°16' W 002°12'0 0.0
2018-Jan-20 03:00N 47°16' W 002°12'0 0.0
2018-Jan-20 02:30N 47°16' W 002°12'0 0.0
2018-Jan-20 02:00N 47°16' W 002°12'0 0.0
2018-Jan-20 01:30N 47°16' W 002°12'0 0.0
2018-Jan-20 01:00N 47°16' W 002°12'0 0.0
2018-Jan-20 00:30N 47°16' W 002°12'0 0.0
2018-Jan-20 00:00N 47°16' W 002°12'0 0.0
2018-Jan-19 23:29N 47°16' W 002°12'0 0.0
2018-Jan-19 23:00N 47°16' W 002°12'0 0.0
2018-Jan-19 22:30N 47°16' W 002°12'0 0.0
2018-Jan-19 22:00N 47°16' W 002°12'0 0.0
2018-Jan-19 21:30N 47°16' W 002°12'0 0.0
2018-Jan-19 21:00N 47°16' W 002°12'0 0.0
2018-Jan-19 20:30N 47°16' W 002°12'0 0.0
2018-Jan-19 20:00N 47°16' W 002°12'0 0.0
2018-Jan-19 19:30N 47°16' W 002°12'2 4.8
2018-Jan-19 19:00N 47°18' W 002°09'0 0.2
2018-Jan-19 18:30N 47°18' W 002°09'3 5.0
2018-Jan-19 18:00N 47°16' W 002°12'0 0.0
2018-Jan-19 17:30N 47°16' W 002°12'0 0.0
2018-Jan-19 17:00N 47°16' W 002°12'0 0.2
2018-Jan-19 16:30N 47°16' W 002°12'4 8.5
2018-Jan-19 16:00N 47°18' W 002°07'0 0.3
2018-Jan-19 15:31N 47°18' W 002°07'3 6.4
2018-Jan-19 15:00N 47°17' W 002°11'1 1.9
2018-Jan-19 14:30N 47°16' W 002°12'0 0.0
2018-Jan-19 14:00N 47°16' W 002°12'0 0.0
2018-Jan-19 13:30N 47°16' W 002°12'0 0.0
2018-Jan-19 13:00N 47°16' W 002°12'0 0.0
2018-Jan-19 12:30N 47°16' W 002°12'0 0.0
2018-Jan-19 12:00N 47°16' W 002°12'0 0.0
2018-Jan-19 11:30N 47°16' W 002°12'0 0.0
2018-Jan-19 11:00N 47°16' W 002°12'0 0.0
2018-Jan-19 10:30N 47°16' W 002°12'0 0.0
2018-Jan-19 10:00N 47°16' W 002°12'0 0.0
2018-Jan-19 09:30N 47°16' W 002°12'0 0.0
2018-Jan-19 09:00N 47°16' W 002°12'0 0.0
2018-Jan-19 08:30N 47°16' W 002°12'0 0.0
2018-Jan-19 08:00N 47°16' W 002°12'0 0.0
2018-Jan-19 07:30N 47°16' W 002°12'0 0.0
2018-Jan-19 07:00N 47°16' W 002°12'5 9.9
2018-Jan-19 06:30N 47°18' W 002°06'1 2.0
2018-Jan-19 06:00N 47°18' W 002°04'0 0.2
2018-Jan-19 05:31N 47°18' W 002°04'1 1.0
2018-Jan-19 05:00N 47°18' W 002°05'1 1.0
2018-Jan-19 04:30N 47°18' W 002°04'0 0.0
2018-Jan-19 04:00N 47°18' W 002°04'510.0
2018-Jan-19 03:30N 47°16' W 002°11'1 1.6
2018-Jan-19 03:00N 47°16' W 002°12'0 0.0
2018-Jan-19 02:30N 47°16' W 002°12'0 0.0
2018-Jan-19 02:00N 47°16' W 002°12'0 0.0
2018-Jan-19 01:30N 47°16' W 002°12'0 0.0
2018-Jan-19 01:00N 47°16' W 002°12'0 0.0
2018-Jan-19 00:30N 47°16' W 002°12'0 0.0
2018-Jan-19 00:00N 47°16' W 002°12'0 0.0
2018-Jan-18 23:30N 47°16' W 002°12'0 0.0
2018-Jan-18 23:00N 47°16' W 002°12'0 0.0
2018-Jan-18 22:30N 47°16' W 002°12'0 0.0
2018-Jan-18 22:00N 47°16' W 002°12'0 0.0
2018-Jan-18 21:30N 47°16' W 002°12'0 0.0
2018-Jan-18 21:00N 47°16' W 002°12'0 0.0
2018-Jan-18 20:30N 47°16' W 002°12'0 0.0
2018-Jan-18 20:00N 47°16' W 002°12'0 0.0
2018-Jan-18 19:30N 47°16' W 002°12'0 0.0
2018-Jan-18 19:00N 47°16' W 002°12'0 0.0
2018-Jan-18 18:30N 47°16' W 002°12'2 2.3
2018-Jan-18 17:30N 47°18' W 002°09'1 1.3
2018-Jan-18 17:00N 47°18' W 002°09'0 0.2
2018-Jan-18 16:30N 47°18' W 002°08'0 0.1
2018-Jan-18 16:00N 47°18' W 002°08'1 1.3
2018-Jan-18 15:31N 47°18' W 002°09'3 5.5
2018-Jan-18 15:00N 47°16' W 002°12'0 0.8
2018-Jan-18 14:30N 47°16' W 002°12'0 0.0
2018-Jan-18 14:01N 47°16' W 002°12'0 0.0
2018-Jan-18 13:31N 47°16' W 002°12'0 0.0
2018-Jan-18 13:01N 47°16' W 002°12'0 0.0
2018-Jan-18 12:30N 47°16' W 002°12'4 8.1
2018-Jan-18 12:00N 47°18' W 002°07'1 1.0
2018-Jan-18 11:30N 47°18' W 002°06'1 1.2
2018-Jan-18 11:00N 47°18' W 002°07'4 7.5
2018-Jan-18 10:29N 47°16' W 002°12'0 0.0
2018-Jan-18 10:01N 47°16' W 002°12'0 0.0
2018-Jan-18 09:31N 47°16' W 002°12'0 0.0
2018-Jan-18 09:00N 47°16' W 002°12'0 0.0
2018-Jan-18 08:30N 47°16' W 002°12'0 0.0
2018-Jan-18 08:00N 47°16' W 002°12'3 5.0
2018-Jan-18 07:30N 47°18' W 002°09'713.1
2018-Jan-18 07:00N 47°17' W 001°59'612.6
2018-Jan-18 06:30N 47°15' W 001°51'610.8
2018-Jan-18 05:59N 47°12' W 001°43'510.0
2018-Jan-18 05:30N 47°12' W 001°36'0 0.1
2018-Jan-18 04:59N 47°12' W 001°36'1 1.9
2018-Jan-18 04:30N 47°12' W 001°35'1 2.6
2018-Jan-18 04:00N 47°12' W 001°37'0 0.0
2018-Jan-18 03:30N 47°12' W 001°37'0 0.0
2018-Jan-18 03:00N 47°12' W 001°37'0 0.9
2018-Jan-18 02:30N 47°12' W 001°36'0 0.1
2018-Jan-18 02:00N 47°12' W 001°36'3 5.4
2018-Jan-18 01:30N 47°12' W 001°40'4 8.5
2018-Jan-18 01:00N 47°12' W 001°47'8 8.3
2018-Jan-18 00:00N 47°17' W 001°57'0 9.4
2018-Jan-17 23:57N 47°17' W 001°58'  

Dump ship's entire track history